Platzwetter Flugplatz Wels

Flugwetter Linz LOWL

[Quelle: ADDS]
METAR
LOWL 232250Z AUTO 06003KT 9999 NSC M03/M04 Q1026 =
AMD LOWL 232202Z 2322/2418 10008KT CAVOK TX00/2414Z TNM03/2409Z BECMG 2323/2401 12004KT 7000 BKN010 TEMPO 2401/2410 4000 BR BKN006 TEMPO 2414/2418 29004KT SCT014
TAF
AMD LOWL 232202Z 2322/2418 10008KT CAVOK TX00/2414Z TNM03/2409Z BECMG 2323/2401 12004KT 7000 BKN010 TEMPO 2401/2410 4000 BR BKN006 TEMPO 2414/2418 29004KT SCT014 =

Flugwetter Salzburg LOWS

[Quelle: ADDS]
METAR
LOWS 232250Z VRB02KT 9000 FEW004 BKN006 M05/M05 Q1026 NOSIG =
LOWS 231715Z 2318/2418 15005KT CAVOK TX06/2414Z TNM05/2402Z BECMG 2320/2322 3500 BR FEW010 TEMPO 2322/2408 1300 BR BKN010 PROB30 TEMPO 2323/2406 0300 FZFG BKN003 BECMG 2408/2410 8000 NSC
TAF
LOWS 231715Z 2318/2418 15005KT CAVOK TX06/2414Z TNM05/2402Z BECMG 2320/2322 3500 BR FEW010 TEMPO 2322/2408 1300 BR BKN010 PROB30 TEMPO 2323/2406 0300 FZFG BKN003 BECMG 2408/2410 8000 NSC =

Wind - Verlauf

Windrichtung - Verlauf

Temperatur - Verlauf

Relative Luftfeuchtigkeit - Verlauf

Luftdruck - Verlauf

Cookies erleichtern die Bereitstellung unserer Dienste. Mit der Nutzung unserer Dienste erklären Sie sich damit einverstanden, dass wir Cookies verwenden.
Weitere Informationen Ok